Earlton, Canada
Current Conditions -  °F | °C
As of 4:00 PM on Saturday 22 Nov 2014 (Local Time) from CYXR Reporting Station
Overcast Overcast  
Wind Chill: 28°   Ceiling: 1400
Heat Index: 36°   Visibility: 9mi
Dew Point: 32°   Wind: 10mph
Humidity: 87%   Direction: 210°SSW
Pressure: 29.68"   Gusts: 17mph
Location:  47.71°N, 79.82°W
Report Text: CYXR 222100Z AUTO 21009G15KT 9SM OVC014 02/M00 A2968 RMK SLP062
Loading
Personal Weather Stations






























Interactive Weather Map New forecast layout! Learn more

10-Day Weather Forecast

Advertisements
Track Severe Weather on mobile